KSBM/SBM METAR and TAF weather

Enter ICAO airport designator
Station Type Date Time Source
KSBM METAR 2020/09/28 09:53 UTC NOAA

KSBM 280953Z AUTO 24004KT 10SM FEW070 OVC120 13/11 A2970 RMK AO2 SLP059 T01330111


Station Type Date Time Source
KSBM Decoded METAR 2020/09/28 09:53 UTC NOAA

SHEBOYGAN CO MEMORIAL AIRPORT , WI, United States (KSBM) 43-47N 87-51W 232M
Sep 28, 2020 - 05:53 AM EDT / 2020.09.28 0953 UTC
Wind: from the WSW (240 degrees) at 5 MPH (4 KT):0
Visibility: 10 mile(s):0
Sky conditions: overcast
Temperature: 55.9 F (13.3 C)
Dew Point: 52.0 F (11.1 C)
Relative Humidity: 86%
Pressure (altimeter): 29.7 in. Hg (1005 hPa)
ob: KSBM 280953Z AUTO 24004KT 10SM FEW070 OVC120 13/11 A2970 RMK AO2 SLP059 T01330111
cycle: 10

Station Type Date Time Source
KSBM TAF 2020/09/28 06:22 UTC NOAA

TAF KSBM 280520Z 2806/2906 24005KT P6SM BKN100
FM281200 27005KT P6SM OVC035
FM281700 32009KT P6SM -SHRA OVC035
FM290000 31009KT P6SM OVC028
AMD NOT SKED 2806/2809

Example: see airport list